createdAt,value
2019-06-08T00:00:07.957Z,101112.02
2019-06-08T00:02:36.430Z,101106.75
2019-06-08T00:05:06.625Z,101093.61
2019-06-08T00:07:35.157Z,101095.84
2019-06-08T00:10:05.966Z,101096.76
2019-06-08T00:12:34.445Z,101106.03
2019-06-08T00:15:03.246Z,101115.73
2019-06-08T00:17:38.592Z,101116.66
2019-06-08T00:20:02.001Z,101115.36
2019-06-08T00:22:30.576Z,101111.45
2019-06-08T00:25:02.300Z,101111.46
2019-06-08T00:27:31.026Z,101115.87
2019-06-08T00:29:59.616Z,101115.92
2019-06-08T00:32:30.220Z,101117.28
2019-06-08T00:34:58.783Z,101113.81
2019-06-08T00:37:27.281Z,101112.55
2019-06-08T00:39:56.944Z,101109.95
2019-06-08T00:42:25.683Z,101109.10
2019-06-08T00:44:54.163Z,101104.30
2019-06-08T00:47:22.802Z,101101.22
2019-06-08T00:49:51.327Z,101102.98
2019-06-08T00:52:20.966Z,101108.65
2019-06-08T00:54:49.767Z,101107.74
2019-06-08T00:57:19.752Z,101109.05
2019-06-08T00:59:48.331Z,101108.15
2019-06-08T01:02:16.846Z,101110.36
2019-06-08T01:04:46.607Z,101110.77
2019-06-08T01:07:15.087Z,101106.38
2019-06-08T01:09:43.582Z,101104.59
2019-06-08T01:12:12.119Z,101110.27
2019-06-08T01:14:40.601Z,101109.86
2019-06-08T01:17:09.083Z,101118.20
2019-06-08T01:19:37.707Z,101118.20
2019-06-08T01:22:06.267Z,101115.11
2019-06-08T01:24:34.761Z,101116.83
2019-06-08T01:27:03.294Z,101098.37
2019-06-08T01:29:31.769Z,101091.73
2019-06-08T01:32:00.255Z,101094.77
2019-06-08T01:34:29.129Z,101092.53
2019-06-08T01:36:57.643Z,101099.91
2019-06-08T01:39:27.278Z,101100.36
2019-06-08T01:41:55.931Z,101102.94
2019-06-08T01:44:25.655Z,101113.86
2019-06-08T01:46:54.342Z,101133.13
2019-06-08T01:49:23.987Z,101141.42
2019-06-08T01:51:52.527Z,101139.63
2019-06-08T01:54:21.016Z,101149.20
2019-06-08T01:56:49.547Z,101157.02
2019-06-08T01:59:19.260Z,101170.52
2019-06-08T02:01:47.722Z,101164.30
2019-06-08T02:04:16.255Z,101157.19
2019-06-08T02:06:44.747Z,101154.03
2019-06-08T02:09:13.217Z,101148.64
2019-06-08T02:11:41.752Z,101149.87
2019-06-08T02:14:10.250Z,101146.24
2019-06-08T02:16:38.753Z,101148.79
2019-06-08T02:19:07.290Z,101151.30
2019-06-08T02:21:35.780Z,101142.88
2019-06-08T02:24:04.402Z,101123.04
2019-06-08T02:26:35.195Z,101131.72
2019-06-08T02:29:03.235Z,101148.33
2019-06-08T02:31:32.769Z,101158.84
2019-06-08T02:34:01.980Z,101166.28
2019-06-08T02:36:31.601Z,101173.72
2019-06-08T02:39:00.673Z,101184.66
2019-06-08T02:41:30.786Z,101196.92
2019-06-08T02:43:59.422Z,101208.77
2019-06-08T02:46:29.078Z,101213.58
2019-06-08T02:49:04.152Z,101203.90
2019-06-08T02:51:28.800Z,101214.48
2019-06-08T02:53:57.964Z,101220.68
2019-06-08T02:56:26.981Z,101226.47
2019-06-08T02:58:56.796Z,101229.18
2019-06-08T03:01:29.543Z,101235.83
2019-06-08T03:03:59.907Z,101244.66
2019-06-08T03:06:32.231Z,101271.06
2019-06-08T03:09:02.449Z,101283.42
2019-06-08T03:11:32.554Z,101287.45
2019-06-08T03:14:01.311Z,101300.66
2019-06-08T03:16:31.247Z,101311.70
2019-06-08T03:19:09.837Z,101318.33
2019-06-08T03:21:31.403Z,101308.27
2019-06-08T03:24:00.007Z,101307.02
2019-06-08T03:26:28.536Z,101307.94
2019-06-08T03:28:57.022Z,101320.24
2019-06-08T03:31:25.505Z,101314.17
2019-06-08T03:33:56.347Z,101318.58
2019-06-08T03:36:24.223Z,101330.93
2019-06-08T03:38:52.694Z,101328.80
2019-06-08T03:41:21.204Z,101323.63
2019-06-08T03:43:49.691Z,101309.17
2019-06-08T03:46:18.234Z,101309.62
2019-06-08T03:48:46.737Z,101310.11
2019-06-08T03:51:15.211Z,101307.95
2019-06-08T03:53:46.389Z,101322.02
2019-06-08T03:56:13.938Z,101334.76
2019-06-08T03:58:43.345Z,101345.77
2019-06-08T04:01:12.617Z,101335.70
2019-06-08T04:03:41.795Z,101322.11
2019-06-08T04:06:10.557Z,101306.78
2019-06-08T04:08:42.842Z,101305.91
2019-06-08T04:11:12.414Z,101300.20
2019-06-08T04:13:42.055Z,101300.61
2019-06-08T04:16:10.862Z,101297.52
2019-06-08T04:18:40.371Z,101308.45
2019-06-08T04:21:09.583Z,101305.82
2019-06-08T04:23:38.080Z,101307.58
2019-06-08T04:26:06.604Z,101307.13
2019-06-08T04:28:35.091Z,101306.67
2019-06-08T04:31:03.581Z,101300.51
2019-06-08T04:33:32.088Z,101306.19
2019-06-08T04:36:00.564Z,101313.66
2019-06-08T04:38:29.049Z,101314.56
2019-06-08T04:40:57.586Z,101308.05
2019-06-08T04:43:26.240Z,101308.45
2019-06-08T04:45:54.716Z,101312.44
2019-06-08T04:48:23.249Z,101319.47
2019-06-08T04:50:51.719Z,101326.50
2019-06-08T04:53:20.196Z,101309.85
2019-06-08T04:55:49.327Z,101304.14
2019-06-08T04:58:17.981Z,101308.49
2019-06-08T05:00:48.736Z,101284.36
2019-06-08T05:03:16.737Z,101315.89
2019-06-08T05:05:47.413Z,101292.25
2019-06-08T05:08:15.743Z,101279.11
2019-06-08T05:10:45.251Z,101272.08
2019-06-08T05:13:13.828Z,101272.48
2019-06-08T05:15:43.214Z,101294.84
2019-06-08T05:18:11.971Z,101329.03
2019-06-08T05:20:43.369Z,101350.98
2019-06-08T05:23:10.663Z,101374.25
2019-06-08T05:25:39.187Z,101384.86
2019-06-08T05:28:07.672Z,101393.27
2019-06-08T05:30:36.920Z,101397.71
2019-06-08T05:33:05.453Z,101395.57
2019-06-08T05:35:33.931Z,101400.86
2019-06-08T05:38:02.433Z,101400.03
2019-06-08T05:40:30.959Z,101389.97
2019-06-08T05:42:59.459Z,101397.41
2019-06-08T05:45:27.950Z,101411.86
2019-06-08T05:47:56.475Z,101428.50
2019-06-08T05:50:25.025Z,101436.35
2019-06-08T05:52:53.526Z,101441.58
2019-06-08T05:55:22.043Z,101438.05
2019-06-08T05:57:50.672Z,101444.59
2019-06-08T06:00:19.293Z,101444.59
2019-06-08T06:02:48.923Z,101456.84
2019-06-08T06:05:18.260Z,101464.70
2019-06-08T06:07:46.897Z,101465.11
2019-06-08T06:10:15.502Z,101470.78
2019-06-08T06:12:45.291Z,101470.75
2019-06-08T06:15:15.251Z,101477.77
2019-06-08T06:17:45.999Z,101487.81
2019-06-08T06:20:16.671Z,101482.06
2019-06-08T06:22:46.292Z,101484.17
2019-06-08T06:25:16.881Z,101487.55
2019-06-08T06:27:45.934Z,101486.97
2019-06-08T06:30:15.779Z,101486.84
2019-06-08T06:32:45.865Z,101486.29
2019-06-08T06:35:14.790Z,101494.09
2019-06-08T06:37:43.798Z,101500.63
2019-06-08T06:40:14.003Z,101497.90
2019-06-08T06:42:45.998Z,101496.84
2019-06-08T06:45:15.377Z,101500.69
2019-06-08T06:47:44.194Z,101505.41
2019-06-08T06:50:14.254Z,101504.83
2019-06-08T06:52:42.868Z,101495.49
2019-06-08T06:55:14.396Z,101494.95
2019-06-08T06:57:45.104Z,101501.44
2019-06-08T07:00:14.138Z,101497.80
2019-06-08T07:02:43.582Z,101499.02
2019-06-08T07:05:12.314Z,101492.88
2019-06-08T07:07:44.114Z,101498.09
2019-06-08T07:10:14.603Z,101483.53
2019-06-08T07:12:44.481Z,101495.77
2019-06-08T07:15:18.594Z,101494.78
2019-06-08T07:17:47.995Z,101484.97
2019-06-08T07:20:16.761Z,101479.56
2019-06-08T07:22:48.100Z,101478.55
2019-06-08T07:25:16.997Z,101485.42
2019-06-08T07:27:46.438Z,101483.98
2019-06-08T07:30:15.051Z,101502.30
2019-06-08T07:32:48.012Z,101503.89
2019-06-08T07:35:18.493Z,101479.18
2019-06-08T07:37:48.657Z,101468.14
2019-06-08T07:40:17.415Z,101485.26
2019-06-08T07:42:45.921Z,101490.51
2019-06-08T07:45:14.551Z,101500.98
2019-06-08T07:47:44.632Z,101493.77
2019-06-08T07:50:14.835Z,101492.25
2019-06-08T07:52:43.357Z,101496.88
2019-06-08T07:55:13.686Z,101515.98
2019-06-08T07:57:42.348Z,101537.05
2019-06-08T08:00:12.383Z,101554.70
2019-06-08T08:02:40.973Z,101549.42
2019-06-08T08:05:09.653Z,101521.25
2019-06-08T08:07:38.367Z,101508.13
2019-06-08T08:10:07.836Z,101517.01
2019-06-08T08:12:37.631Z,101520.56
2019-06-08T08:15:12.189Z,101533.71
2019-06-08T08:17:41.777Z,101548.70
2019-06-08T08:20:11.840Z,101568.08
2019-06-08T08:22:40.410Z,101573.73
2019-06-08T08:25:12.583Z,101578.88
2019-06-08T08:27:41.091Z,101577.72
2019-06-08T08:30:11.018Z,101581.52
2019-06-08T08:32:39.537Z,101577.17
2019-06-08T08:35:08.747Z,101581.23
2019-06-08T08:37:38.042Z,101584.03
2019-06-08T08:40:08.819Z,101593.73
2019-06-08T08:42:38.670Z,101600.97
2019-06-08T08:45:08.687Z,101608.28
2019-06-08T08:47:38.676Z,101599.37
2019-06-08T08:50:08.670Z,101610.67
2019-06-08T08:52:40.542Z,101606.58
2019-06-08T08:55:08.347Z,101598.77
2019-06-08T08:57:41.142Z,101561.46
2019-06-08T09:00:10.780Z,101593.91
2019-06-08T09:02:39.399Z,101591.46
2019-06-08T09:05:08.674Z,101579.84
2019-06-08T09:07:38.489Z,101564.34
2019-06-08T09:10:08.518Z,101554.19
2019-06-08T09:12:38.030Z,101548.11
2019-06-08T09:15:28.779Z,101546.11
2019-06-08T09:18:00.944Z,101561.72
2019-06-08T09:20:28.760Z,101574.39
2019-06-08T09:23:06.642Z,101571.59
2019-06-08T09:25:28.052Z,101576.27
2019-06-08T09:28:01.234Z,101583.55
2019-06-08T09:30:27.615Z,101596.68
2019-06-08T09:32:59.094Z,101607.56
2019-06-08T09:35:27.996Z,101595.81
2019-06-08T09:38:00.793Z,101589.42
2019-06-08T09:40:29.930Z,101595.28
2019-06-08T09:43:04.087Z,101594.95
2019-06-08T09:45:28.941Z,101599.04
2019-06-08T09:48:00.468Z,101599.12
2019-06-08T09:50:27.982Z,101604.47
2019-06-08T09:53:13.093Z,101605.00
2019-06-08T09:55:28.751Z,101608.52
2019-06-08T09:58:01.964Z,101595.83
2019-06-08T10:00:29.226Z,101595.83
2019-06-08T10:03:04.563Z,101603.30
2019-06-08T10:05:32.597Z,101604.22
2019-06-08T10:08:02.847Z,101608.16
2019-06-08T10:10:31.369Z,101614.27
2019-06-08T10:13:03.545Z,101619.45
2019-06-08T10:15:30.167Z,101621.09
2019-06-08T10:18:01.026Z,101630.20
2019-06-08T10:20:30.898Z,101631.78
2019-06-08T10:23:01.556Z,101629.30
2019-06-08T10:25:30.674Z,101626.84
2019-06-08T10:28:02.822Z,101625.17
2019-06-08T10:30:30.427Z,101630.96
2019-06-08T10:33:01.618Z,101629.21
2019-06-08T10:35:29.318Z,101624.05
2019-06-08T10:38:02.759Z,101631.29
2019-06-08T10:40:28.742Z,101612.16
2019-06-08T10:42:59.800Z,101615.56
2019-06-08T10:45:28.652Z,101627.91
2019-06-08T10:47:59.339Z,101640.33
2019-06-08T10:50:28.820Z,101644.41
2019-06-08T10:53:01.281Z,101650.20
2019-06-08T10:55:28.059Z,101668.33
2019-06-08T10:57:58.098Z,101663.95
2019-06-08T11:00:28.241Z,101665.20
2019-06-08T11:03:01.301Z,101646.39
2019-06-08T11:05:28.128Z,101646.23
2019-06-08T11:07:58.875Z,101655.93
2019-06-08T11:10:26.938Z,101661.98
2019-06-08T11:12:58.216Z,101650.87
2019-06-08T11:15:29.790Z,101654.42
2019-06-08T11:18:01.551Z,101644.64
2019-06-08T11:20:30.238Z,101665.77
2019-06-08T11:23:00.719Z,101677.23
2019-06-08T11:25:28.820Z,101680.26
2019-06-08T11:27:58.670Z,101669.20
2019-06-08T11:30:30.435Z,101661.55
2019-06-08T11:32:57.934Z,101660.94
2019-06-08T11:35:28.502Z,101658.88
2019-06-08T11:37:58.469Z,101661.91
2019-06-08T11:40:27.830Z,101665.80
2019-06-08T11:42:58.588Z,101670.03
2019-06-08T11:45:27.199Z,101670.52
2019-06-08T11:47:58.308Z,101667.89
2019-06-08T11:50:41.556Z,101681.61
2019-06-08T11:53:10.605Z,101684.34
2019-06-08T11:55:39.649Z,101679.16
2019-06-08T11:58:11.831Z,101691.59
2019-06-08T12:01:01.895Z,101695.61
2019-06-08T12:03:31.328Z,101686.40
2019-06-08T12:05:59.874Z,101702.23
2019-06-08T12:08:28.727Z,101702.91
2019-06-08T12:11:01.962Z,101716.23
2019-06-08T12:13:27.954Z,101701.98
2019-06-08T12:15:58.910Z,101702.52
2019-06-08T12:18:26.961Z,101708.45
2019-06-08T12:20:55.710Z,101703.24
2019-06-08T12:23:24.406Z,101708.27
2019-06-08T12:25:52.887Z,101706.89
2019-06-08T12:28:21.373Z,101705.14
2019-06-08T12:30:49.884Z,101701.59
2019-06-08T12:33:19.852Z,101712.44
2019-06-08T12:35:50.711Z,101701.02
2019-06-08T12:38:19.250Z,101709.22
2019-06-08T12:40:48.545Z,101714.11
2019-06-08T12:43:18.935Z,101714.70
2019-06-08T12:45:47.513Z,101718.19
2019-06-08T12:48:20.462Z,101711.11
2019-06-08T12:50:47.825Z,101717.81
2019-06-08T12:53:21.201Z,101711.65
2019-06-08T12:55:47.591Z,101715.92
2019-06-08T12:58:21.630Z,101716.81
2019-06-08T13:00:48.273Z,101709.41
2019-06-08T13:03:17.189Z,101720.55
2019-06-08T13:05:45.736Z,101717.83
2019-06-08T13:08:15.295Z,101714.41
2019-06-08T13:10:44.649Z,101722.24
2019-06-08T13:13:14.409Z,101721.63
2019-06-08T13:15:43.277Z,101726.91
2019-06-08T13:18:14.047Z,101733.77
2019-06-08T13:20:43.756Z,101726.58
2019-06-08T13:23:13.095Z,101730.36
2019-06-08T13:25:43.934Z,101732.49
2019-06-08T13:28:15.427Z,101727.92
2019-06-08T13:30:43.847Z,101731.52
2019-06-08T13:33:12.457Z,101732.55
2019-06-08T13:35:41.063Z,101737.25
2019-06-08T13:38:10.587Z,101738.77
2019-06-08T13:40:40.356Z,101741.86
2019-06-08T13:43:09.122Z,101736.30
2019-06-08T13:45:39.435Z,101739.04
2019-06-08T13:48:08.939Z,101740.16
2019-06-08T13:50:37.697Z,101739.78
2019-06-08T13:53:10.550Z,101744.23
2019-06-08T13:55:49.660Z,101745.18
2019-06-08T13:58:06.638Z,101750.60
2019-06-08T14:00:38.470Z,101742.67
2019-06-08T14:03:08.482Z,101744.95
2019-06-08T14:05:39.207Z,101745.13
2019-06-08T14:08:10.561Z,101758.67
2019-06-08T14:10:39.720Z,101756.77
2019-06-08T14:13:08.203Z,101750.31
2019-06-08T14:15:37.993Z,101746.48
2019-06-08T14:18:08.800Z,101748.98
2019-06-08T14:20:38.647Z,101746.19
2019-06-08T14:23:08.958Z,101750.80
2019-06-08T14:25:47.932Z,101752.25
2019-06-08T14:28:08.112Z,101751.03
2019-06-08T14:30:41.256Z,101750.68
2019-06-08T14:33:09.715Z,101756.94
2019-06-08T14:35:38.376Z,101765.13
2019-06-08T14:38:07.238Z,101755.16
2019-06-08T14:40:37.576Z,101768.16
2019-06-08T14:43:10.431Z,101756.47
2019-06-08T14:45:37.847Z,101762.36
2019-06-08T14:48:06.491Z,101762.99
2019-06-08T14:50:40.301Z,101751.62
2019-06-08T14:53:08.305Z,101766.09
2019-06-08T14:55:38.492Z,101766.18
2019-06-08T14:58:08.183Z,101768.70
2019-06-08T15:00:38.004Z,101777.30
2019-06-08T15:03:07.691Z,101780.17
2019-06-08T15:05:36.625Z,101783.09
2019-06-08T15:08:08.119Z,101778.84
2019-06-08T15:10:35.562Z,101773.38
2019-06-08T15:13:07.762Z,101775.88
2019-06-08T15:15:38.118Z,101782.80
2019-06-08T15:18:08.443Z,101787.36
2019-06-08T15:20:37.941Z,101778.80
2019-06-08T15:23:08.323Z,101782.59
2019-06-08T15:25:38.724Z,101788.11
2019-06-08T15:28:08.902Z,101795.72
2019-06-08T15:30:39.145Z,101797.05
2019-06-08T15:33:07.614Z,101803.76
2019-06-08T15:35:37.670Z,101800.36
2019-06-08T15:38:08.402Z,101799.66
2019-06-08T15:40:37.871Z,101807.00
2019-06-08T15:43:08.677Z,101800.63
2019-06-08T15:45:37.077Z,101798.38
2019-06-08T15:48:07.801Z,101812.77
2019-06-08T15:50:37.868Z,101804.14
2019-06-08T15:53:08.336Z,101796.46
2019-06-08T15:55:38.304Z,101801.03
2019-06-08T15:58:09.010Z,101809.95
2019-06-08T16:00:37.443Z,101811.44
2019-06-08T16:03:05.928Z,101811.16
2019-06-08T16:05:34.458Z,101814.89
2019-06-08T16:08:02.930Z,101813.11
2019-06-08T16:10:32.312Z,101810.86
2019-06-08T16:13:00.930Z,101810.97
2019-06-08T16:15:30.977Z,101816.28
2019-06-08T16:17:59.604Z,101807.58
2019-06-08T16:20:29.429Z,101805.19
2019-06-08T16:22:58.154Z,101800.86
2019-06-08T16:25:27.562Z,101805.09
2019-06-08T16:27:56.434Z,101815.14
2019-06-08T16:30:25.137Z,101819.51
2019-06-08T16:32:53.633Z,101814.61
2019-06-08T16:35:22.161Z,101814.88
2019-06-08T16:37:50.640Z,101822.14
2019-06-08T16:40:19.119Z,101818.33
2019-06-08T16:42:47.641Z,101825.55
2019-06-08T16:45:16.249Z,101826.50
2019-06-08T16:47:44.732Z,101824.34
2019-06-08T16:50:24.095Z,101829.22
2019-06-08T16:52:43.485Z,101828.38
2019-06-08T16:55:12.029Z,101834.55
2019-06-08T16:57:41.298Z,101834.99
2019-06-08T17:00:30.368Z,101837.48
2019-06-08T17:02:41.623Z,101834.72
2019-06-08T17:05:10.263Z,101837.22
2019-06-08T17:07:39.740Z,101843.72
2019-06-08T17:10:08.864Z,101838.72
2019-06-08T17:12:37.392Z,101846.19
2019-06-08T17:15:06.749Z,101847.16
2019-06-08T17:17:36.520Z,101849.05
2019-06-08T17:20:05.855Z,101847.52
2019-06-08T17:22:34.569Z,101848.23
2019-06-08T17:25:03.854Z,101855.62
2019-06-08T17:27:32.678Z,101863.75
2019-06-08T17:30:08.070Z,101864.86
2019-06-08T17:32:31.782Z,101871.27
2019-06-08T17:35:00.294Z,101872.36
2019-06-08T17:37:28.826Z,101872.06
2019-06-08T17:40:00.486Z,101866.72
2019-06-08T17:42:29.969Z,101867.67
2019-06-08T17:44:58.463Z,101869.02
2019-06-08T17:47:26.977Z,101869.34
2019-06-08T17:49:56.216Z,101863.56
2019-06-08T17:52:27.899Z,101866.31
2019-06-08T17:54:55.995Z,101863.16
2019-06-08T17:57:38.582Z,101866.12
2019-06-08T17:59:55.742Z,101869.24
2019-06-08T18:02:28.151Z,101871.25
2019-06-08T18:04:54.678Z,101868.37
2019-06-08T18:07:24.516Z,101875.34
2019-06-08T18:09:53.016Z,101880.89
2019-06-08T18:12:21.983Z,101880.61
2019-06-08T18:14:50.473Z,101882.02
2019-06-08T18:17:19.130Z,101885.91
2019-06-08T18:19:49.628Z,101882.21
2019-06-08T18:22:18.720Z,101884.68
2019-06-08T18:24:47.885Z,101892.82
2019-06-08T18:27:18.033Z,101892.55
2019-06-08T18:29:48.808Z,101893.12
2019-06-08T18:32:18.107Z,101899.36
2019-06-08T18:34:48.156Z,101900.84
2019-06-08T18:37:18.285Z,101900.95
2019-06-08T18:39:49.484Z,101902.39
2019-06-08T18:42:18.026Z,101906.52
2019-06-08T18:44:48.562Z,101915.88
2019-06-08T18:47:17.787Z,101919.08
2019-06-08T18:49:48.350Z,101918.31
2019-06-08T18:52:17.903Z,101920.19
2019-06-08T18:54:49.563Z,101928.21
2019-06-08T18:57:17.683Z,101928.77
2019-06-08T18:59:50.962Z,101933.27
2019-06-08T19:02:18.028Z,101939.09
2019-06-08T19:04:48.071Z,101941.36
2019-06-08T19:07:17.550Z,101944.07
2019-06-08T19:09:48.090Z,101945.50
2019-06-08T19:12:19.516Z,101950.84
2019-06-08T19:14:48.008Z,101957.92
2019-06-08T19:17:17.616Z,101957.58
2019-06-08T19:19:51.619Z,101960.27
2019-06-08T19:22:19.029Z,101966.89
2019-06-08T19:24:50.646Z,101971.77
2019-06-08T19:27:18.463Z,101981.02
2019-06-08T19:29:51.377Z,101985.89
2019-06-08T19:32:17.647Z,101990.31
2019-06-08T19:34:52.231Z,101993.00
2019-06-08T19:37:20.691Z,101991.70
2019-06-08T19:39:49.348Z,101999.17
2019-06-08T19:42:18.063Z,101998.77
2019-06-08T19:44:59.298Z,102002.75
2019-06-08T19:47:18.105Z,102004.53
2019-06-08T19:49:54.471Z,102007.17
2019-06-08T19:52:23.131Z,102013.34
2019-06-08T19:54:53.875Z,102015.98
2019-06-08T19:57:21.916Z,102016.45
2019-06-08T19:59:50.414Z,102014.73
2019-06-08T20:02:18.959Z,102021.32
2019-06-08T20:04:48.852Z,102020.00
2019-06-08T20:07:17.970Z,102025.27
2019-06-08T20:09:49.714Z,102026.58
2019-06-08T20:12:19.643Z,102024.41
2019-06-08T20:14:49.886Z,102034.50
2019-06-08T20:17:19.358Z,102026.62
2019-06-08T20:19:50.493Z,102031.44
2019-06-08T20:22:18.454Z,102034.52
2019-06-08T20:24:51.406Z,102034.95
2019-06-08T20:27:18.638Z,102043.72
2019-06-08T20:29:48.306Z,102039.77
2019-06-08T20:32:18.190Z,102048.56
2019-06-08T20:34:49.313Z,102049.85
2019-06-08T20:37:17.539Z,102053.37
2019-06-08T20:39:59.302Z,102056.00
2019-06-08T20:42:17.432Z,102054.23
2019-06-08T20:44:48.632Z,102056.89
2019-06-08T20:47:20.690Z,102063.44
2019-06-08T20:49:49.379Z,102069.12
2019-06-08T20:52:18.468Z,102071.74
2019-06-08T20:54:48.922Z,102077.44
2019-06-08T20:57:17.214Z,102073.94
2019-06-08T20:59:45.759Z,102075.25
2019-06-08T21:02:14.284Z,102074.77
2019-06-08T21:04:44.449Z,102073.87
2019-06-08T21:07:13.294Z,102063.80
2019-06-08T21:09:41.752Z,102069.91
2019-06-08T21:12:10.264Z,102078.22
2019-06-08T21:14:38.792Z,102074.70
2019-06-08T21:17:07.631Z,102077.75
2019-06-08T21:19:36.509Z,102083.88
2019-06-08T21:22:08.013Z,102073.34
2019-06-08T21:24:37.139Z,102067.66
2019-06-08T21:27:08.169Z,102074.18
2019-06-08T21:29:47.442Z,102076.36
2019-06-08T21:32:08.151Z,102074.59
2019-06-08T21:34:38.034Z,102075.45
2019-06-08T21:37:09.052Z,102085.04
2019-06-08T21:39:39.079Z,102087.66
2019-06-08T21:42:08.307Z,102084.56
2019-06-08T21:44:37.308Z,102086.28
2019-06-08T21:47:07.853Z,102086.70
2019-06-08T21:49:38.239Z,102092.80
2019-06-08T21:52:07.347Z,102093.63
2019-06-08T21:54:37.570Z,102096.25
2019-06-08T21:57:09.391Z,102097.47
2019-06-08T21:59:37.847Z,102096.56
2019-06-08T22:02:08.178Z,102097.40
2019-06-08T22:04:37.292Z,102099.14
2019-06-08T22:07:07.110Z,102098.25
2019-06-08T22:09:37.426Z,102100.42
2019-06-08T22:12:07.145Z,102105.61
2019-06-08T22:14:37.800Z,102102.55
2019-06-08T22:17:07.859Z,102099.44
2019-06-08T22:19:38.086Z,102105.97
2019-06-08T22:22:08.431Z,102108.14
2019-06-08T22:24:38.416Z,102108.55
2019-06-08T22:27:07.343Z,102111.60
2019-06-08T22:29:38.149Z,102115.92
2019-06-08T22:32:07.672Z,102113.72
2019-06-08T22:34:37.233Z,102118.50
2019-06-08T22:37:08.352Z,102113.20
2019-06-08T22:39:37.448Z,102118.86
2019-06-08T22:42:08.356Z,102118.84
2019-06-08T22:44:37.507Z,102124.94
2019-06-08T22:47:08.134Z,102119.67
2019-06-08T22:49:38.378Z,102118.30
2019-06-08T22:52:08.207Z,102123.52
2019-06-08T22:54:38.304Z,102123.47
2019-06-08T22:57:07.995Z,102127.34
2019-06-08T22:59:37.297Z,102129.50
2019-06-08T23:02:08.902Z,102127.76
2019-06-08T23:04:36.170Z,102131.25
2019-06-08T23:07:06.313Z,102134.72
2019-06-08T23:09:37.176Z,102136.00
2019-06-08T23:12:09.113Z,102140.34
2019-06-08T23:14:37.642Z,102140.34
2019-06-08T23:17:08.493Z,102143.38
2019-06-08T23:19:37.377Z,102138.06
2019-06-08T23:22:08.321Z,102143.72
2019-06-08T23:24:38.234Z,102142.84
2019-06-08T23:27:06.761Z,102145.02
2019-06-08T23:29:35.241Z,102140.62
2019-06-08T23:32:04.877Z,102148.09
2019-06-08T23:34:33.950Z,102148.48
2019-06-08T23:37:05.667Z,102149.80
2019-06-08T23:39:32.636Z,102144.53
2019-06-08T23:42:01.635Z,102141.47
2019-06-08T23:44:30.220Z,102141.47
2019-06-08T23:47:01.167Z,102143.19
2019-06-08T23:49:29.289Z,102139.70
2019-06-08T23:51:59.652Z,102142.72
2019-06-08T23:54:28.153Z,102141.84
2019-06-08T23:56:56.735Z,102145.31
2019-06-08T23:59:27.565Z,102147.90
